createdAt,value
2022-07-31T00:00:42.920Z,18.58
2022-07-31T00:01:42.869Z,18.52
2022-07-31T00:02:42.847Z,18.49
2022-07-31T00:03:42.979Z,18.47
2022-07-31T00:04:42.811Z,18.52
2022-07-31T00:05:42.816Z,18.41
2022-07-31T00:06:42.757Z,18.41
2022-07-31T00:07:42.743Z,18.40
2022-07-31T00:08:42.716Z,18.40
2022-07-31T00:09:49.281Z,18.41
2022-07-31T00:10:43.721Z,18.40
2022-07-31T00:11:42.663Z,18.41
2022-07-31T00:12:42.634Z,18.38
2022-07-31T00:13:56.310Z,18.35
2022-07-31T00:14:43.620Z,18.41
2022-07-31T00:15:42.571Z,18.38
2022-07-31T00:16:42.551Z,18.38
2022-07-31T00:17:42.542Z,18.44
2022-07-31T00:18:42.510Z,18.43
2022-07-31T00:19:42.517Z,18.41
2022-07-31T00:20:42.470Z,18.38
2022-07-31T00:21:42.447Z,18.34
2022-07-31T00:22:42.431Z,18.47
2022-07-31T00:23:42.409Z,18.40
2022-07-31T00:24:42.408Z,18.41
2022-07-31T00:25:42.359Z,18.53
2022-07-31T00:26:42.340Z,18.40
2022-07-31T00:27:42.318Z,18.47
2022-07-31T00:28:42.298Z,18.43
2022-07-31T00:29:42.303Z,18.44
2022-07-31T00:30:42.259Z,18.38
2022-07-31T00:31:42.234Z,18.40
2022-07-31T00:32:42.214Z,18.38
2022-07-31T00:33:42.191Z,18.50
2022-07-31T00:34:42.198Z,18.45
2022-07-31T00:35:42.148Z,18.50
2022-07-31T00:36:42.131Z,18.41
2022-07-31T00:37:42.115Z,18.47
2022-07-31T00:38:42.089Z,18.43
2022-07-31T00:39:42.095Z,18.44
2022-07-31T00:40:42.044Z,18.49
2022-07-31T00:41:42.023Z,18.49
2022-07-31T00:42:41.996Z,18.53
2022-07-31T00:43:41.982Z,18.45
2022-07-31T00:44:41.986Z,18.44
2022-07-31T00:45:41.937Z,18.43
2022-07-31T00:46:41.977Z,18.40
2022-07-31T00:47:41.906Z,18.41
2022-07-31T00:48:41.873Z,18.41
2022-07-31T00:49:41.881Z,18.43
2022-07-31T00:50:41.835Z,18.44
2022-07-31T00:51:41.814Z,18.45
2022-07-31T00:52:41.790Z,18.44
2022-07-31T00:53:41.766Z,18.49
2022-07-31T00:54:41.773Z,18.45
2022-07-31T00:55:51.319Z,18.43
2022-07-31T00:56:42.703Z,18.43
2022-07-31T00:57:41.689Z,18.37
2022-07-31T00:58:41.662Z,18.43
2022-07-31T00:59:41.669Z,18.33
2022-07-31T01:00:41.653Z,18.47
2022-07-31T01:01:41.639Z,18.37
2022-07-31T01:02:46.418Z,18.38
2022-07-31T01:03:42.559Z,18.41
2022-07-31T01:04:44.389Z,18.33
2022-07-31T01:05:41.515Z,18.31
2022-07-31T01:06:42.786Z,18.40
2022-07-31T01:07:42.471Z,18.33
2022-07-31T01:08:41.458Z,18.41
2022-07-31T01:09:41.454Z,18.43
2022-07-31T01:10:41.481Z,18.34
2022-07-31T01:11:41.390Z,18.37
2022-07-31T01:12:41.363Z,18.38
2022-07-31T01:13:41.338Z,18.35
2022-07-31T01:14:41.352Z,18.34
2022-07-31T01:15:41.296Z,18.37
2022-07-31T01:16:41.275Z,18.34
2022-07-31T01:17:41.253Z,18.31
2022-07-31T01:18:41.257Z,18.31
2022-07-31T01:19:42.851Z,18.31
2022-07-31T01:20:41.186Z,18.31
2022-07-31T01:21:41.164Z,18.19
2022-07-31T01:22:41.145Z,18.23
2022-07-31T01:23:41.123Z,18.23
2022-07-31T01:24:42.129Z,18.23
2022-07-31T01:25:41.081Z,18.18
2022-07-31T01:26:41.060Z,18.19
2022-07-31T01:27:49.443Z,18.16
2022-07-31T01:28:42.020Z,18.33
2022-07-31T01:29:41.033Z,18.16
2022-07-31T01:30:40.975Z,18.18
2022-07-31T01:31:40.954Z,18.08
2022-07-31T01:32:40.930Z,18.15
2022-07-31T01:33:40.970Z,18.18
2022-07-31T01:34:40.913Z,18.08
2022-07-31T01:35:40.869Z,18.23
2022-07-31T01:36:40.843Z,18.22
2022-07-31T01:37:40.826Z,18.19
2022-07-31T01:38:45.453Z,18.04
2022-07-31T01:39:41.811Z,18.07
2022-07-31T01:40:40.759Z,18.13
2022-07-31T01:41:40.740Z,18.05
2022-07-31T01:42:40.720Z,18.01
2022-07-31T01:43:40.695Z,18.08
2022-07-31T01:44:41.697Z,17.90
2022-07-31T01:45:40.651Z,18.04
2022-07-31T01:46:41.730Z,18.01
2022-07-31T01:47:40.606Z,17.97
2022-07-31T01:48:40.614Z,17.98
2022-07-31T01:49:40.562Z,17.98
2022-07-31T01:50:43.263Z,18.04
2022-07-31T01:51:40.530Z,17.90
2022-07-31T01:52:40.501Z,17.97
2022-07-31T01:53:40.479Z,18.01
2022-07-31T01:54:40.462Z,18.00
2022-07-31T01:56:02.510Z,18.00
2022-07-31T01:56:41.415Z,18.04
2022-07-31T01:57:40.395Z,18.01
2022-07-31T01:58:40.366Z,17.92
2022-07-31T01:59:44.708Z,17.98
2022-07-31T02:00:41.399Z,17.92
2022-07-31T02:01:40.373Z,17.90
2022-07-31T02:02:40.382Z,17.83
2022-07-31T02:03:43.693Z,17.87
2022-07-31T02:04:40.243Z,17.85
2022-07-31T02:05:40.248Z,17.89
2022-07-31T02:06:40.203Z,17.86
2022-07-31T02:07:40.188Z,17.90
2022-07-31T02:08:40.156Z,17.87
2022-07-31T02:09:58.094Z,17.86
2022-07-31T02:10:41.136Z,17.87
2022-07-31T02:11:53.413Z,17.78
2022-07-31T02:12:41.070Z,17.86
2022-07-31T02:13:40.040Z,17.89
2022-07-31T02:14:40.032Z,17.87
2022-07-31T02:15:40.024Z,17.97
2022-07-31T02:16:39.979Z,17.92
2022-07-31T02:17:39.951Z,17.89
2022-07-31T02:18:39.932Z,17.92
2022-07-31T02:19:39.910Z,17.87
2022-07-31T02:20:40.915Z,17.83
2022-07-31T02:21:39.870Z,17.87
2022-07-31T02:22:39.848Z,17.90
2022-07-31T02:23:39.830Z,17.90
2022-07-31T02:24:39.808Z,17.92
2022-07-31T02:25:39.815Z,17.85
2022-07-31T02:26:39.767Z,17.78
2022-07-31T02:27:55.410Z,17.80
2022-07-31T02:28:40.726Z,17.82
2022-07-31T02:29:39.708Z,17.80
2022-07-31T02:30:39.993Z,17.79
2022-07-31T02:31:39.659Z,17.74
2022-07-31T02:32:39.642Z,17.79
2022-07-31T02:33:39.619Z,17.76
2022-07-31T02:34:39.593Z,17.82
2022-07-31T02:35:39.603Z,17.80
2022-07-31T02:36:39.553Z,17.90
2022-07-31T02:37:39.535Z,17.79
2022-07-31T02:38:39.511Z,17.85
2022-07-31T02:39:39.487Z,17.85
2022-07-31T02:40:39.495Z,17.89
2022-07-31T02:41:39.447Z,17.82
2022-07-31T02:42:39.420Z,17.92
2022-07-31T02:43:39.398Z,17.87
2022-07-31T02:44:39.377Z,17.92
2022-07-31T02:45:39.383Z,17.85
2022-07-31T02:46:39.335Z,17.86
2022-07-31T02:47:39.309Z,17.86
2022-07-31T02:48:39.289Z,17.92
2022-07-31T02:49:39.266Z,17.83
2022-07-31T02:50:39.270Z,17.86
2022-07-31T02:51:41.020Z,17.87
2022-07-31T02:52:39.200Z,17.89
2022-07-31T02:53:39.179Z,17.89
2022-07-31T02:54:39.153Z,17.80
2022-07-31T02:55:39.162Z,17.87
2022-07-31T02:56:39.113Z,17.86
2022-07-31T02:57:39.083Z,17.90
2022-07-31T02:58:40.094Z,17.87
2022-07-31T02:59:39.044Z,17.85
2022-07-31T03:00:39.233Z,17.87
2022-07-31T03:01:38.999Z,17.76
2022-07-31T03:02:38.977Z,17.76
2022-07-31T03:03:38.952Z,17.70
2022-07-31T03:04:38.931Z,17.71
2022-07-31T03:05:38.930Z,17.68
2022-07-31T03:06:38.888Z,17.65
2022-07-31T03:07:38.870Z,17.64
2022-07-31T03:08:38.848Z,17.74
2022-07-31T03:09:38.829Z,17.63
2022-07-31T03:10:38.832Z,17.68
2022-07-31T03:11:38.783Z,17.54
2022-07-31T03:12:38.759Z,17.57
2022-07-31T03:13:38.783Z,17.57
2022-07-31T03:14:38.721Z,17.56
2022-07-31T03:15:38.697Z,17.54
2022-07-31T03:16:38.678Z,17.54
2022-07-31T03:17:41.161Z,17.48
2022-07-31T03:18:38.654Z,17.48
2022-07-31T03:19:38.609Z,17.42
2022-07-31T03:20:38.616Z,17.42
2022-07-31T03:21:38.561Z,17.33
2022-07-31T03:22:38.547Z,17.26
2022-07-31T03:23:38.519Z,17.26
2022-07-31T03:24:38.502Z,17.16
2022-07-31T03:25:38.504Z,17.22
2022-07-31T03:26:38.457Z,17.22
2022-07-31T03:27:38.435Z,17.16
2022-07-31T03:28:38.413Z,17.16
2022-07-31T03:29:42.714Z,17.11
2022-07-31T03:30:39.397Z,17.16
2022-07-31T03:31:38.345Z,17.06
2022-07-31T03:32:38.326Z,17.08
2022-07-31T03:33:38.306Z,17.02
2022-07-31T03:34:38.282Z,17.09
2022-07-31T03:35:42.412Z,16.93
2022-07-31T03:36:39.243Z,16.97
2022-07-31T03:37:38.220Z,16.97
2022-07-31T03:38:41.019Z,17.02
2022-07-31T03:39:39.184Z,16.97
2022-07-31T03:40:38.297Z,17.01
2022-07-31T03:41:38.136Z,16.91
2022-07-31T03:42:38.108Z,16.96
2022-07-31T03:43:47.132Z,16.93
2022-07-31T03:44:39.069Z,16.96
2022-07-31T03:45:38.078Z,16.87
2022-07-31T03:46:38.024Z,16.99
2022-07-31T03:47:37.999Z,16.91
2022-07-31T03:48:37.978Z,16.83
2022-07-31T03:49:38.155Z,16.84
2022-07-31T03:50:37.960Z,16.86
2022-07-31T03:51:37.913Z,16.86
2022-07-31T03:52:37.887Z,16.89
2022-07-31T03:53:37.873Z,16.84
2022-07-31T03:54:37.844Z,16.76
2022-07-31T03:55:37.890Z,16.87
2022-07-31T03:56:37.799Z,16.94
2022-07-31T03:57:37.782Z,16.96
2022-07-31T03:58:37.923Z,17.11
2022-07-31T03:59:40.540Z,17.29
2022-07-31T04:00:38.734Z,17.23
2022-07-31T04:01:57.976Z,17.12
2022-07-31T04:02:38.710Z,17.16
2022-07-31T04:03:37.645Z,17.14
2022-07-31T04:04:37.628Z,17.19
2022-07-31T04:05:37.629Z,17.26
2022-07-31T04:06:37.583Z,17.39
2022-07-31T04:07:37.557Z,17.44
2022-07-31T04:08:37.536Z,17.44
2022-07-31T04:09:37.516Z,17.46
2022-07-31T04:10:37.516Z,17.68
2022-07-31T04:11:37.472Z,18.07
2022-07-31T04:12:37.445Z,18.58
2022-07-31T04:13:37.425Z,18.90
2022-07-31T04:14:37.405Z,19.31
2022-07-31T04:15:37.409Z,19.69
2022-07-31T04:16:37.358Z,20.07
2022-07-31T04:17:37.337Z,20.29
2022-07-31T04:18:37.320Z,20.67
2022-07-31T04:19:37.294Z,21.00
2022-07-31T04:20:37.340Z,21.43
2022-07-31T04:21:37.252Z,21.67
2022-07-31T04:22:37.233Z,21.77
2022-07-31T04:23:37.214Z,21.58
2022-07-31T04:24:37.194Z,21.64
2022-07-31T04:25:37.202Z,21.69
2022-07-31T04:26:37.155Z,21.80
2022-07-31T04:27:48.456Z,21.91
2022-07-31T04:28:38.115Z,22.22
2022-07-31T04:29:37.097Z,22.73
2022-07-31T04:30:37.102Z,23.21
2022-07-31T04:31:37.053Z,23.65
2022-07-31T04:32:37.037Z,23.93
2022-07-31T04:33:48.316Z,24.30
2022-07-31T04:34:37.999Z,24.50
2022-07-31T04:35:37.010Z,24.76
2022-07-31T04:36:36.965Z,25.03
2022-07-31T04:37:36.944Z,25.25
2022-07-31T04:38:36.925Z,25.59
2022-07-31T04:39:36.912Z,25.85
2022-07-31T04:40:36.913Z,25.90
2022-07-31T04:41:36.869Z,25.85
2022-07-31T04:42:36.850Z,25.88
2022-07-31T04:43:36.830Z,25.75
2022-07-31T04:44:36.809Z,25.59
2022-07-31T04:45:36.816Z,25.16
2022-07-31T04:46:36.771Z,24.85
2022-07-31T04:47:36.752Z,24.98
2022-07-31T04:48:36.735Z,25.18
2022-07-31T04:49:36.763Z,25.33
2022-07-31T04:50:36.728Z,25.70
2022-07-31T04:51:36.682Z,25.77
2022-07-31T04:52:36.668Z,26.09
2022-07-31T04:53:38.413Z,26.60
2022-07-31T04:54:36.629Z,27.27
2022-07-31T04:55:36.634Z,27.85
2022-07-31T04:56:36.588Z,28.23
2022-07-31T04:57:36.572Z,28.67
2022-07-31T04:58:36.551Z,29.01
2022-07-31T04:59:59.758Z,29.16
2022-07-31T05:00:37.540Z,29.38
2022-07-31T05:01:37.547Z,29.42
2022-07-31T05:02:36.490Z,29.39
2022-07-31T05:03:36.470Z,29.49
2022-07-31T05:04:36.452Z,28.81
2022-07-31T05:05:36.460Z,28.14
2022-07-31T05:06:36.413Z,27.77
2022-07-31T05:07:36.409Z,27.26
2022-07-31T05:08:36.378Z,26.83
2022-07-31T05:09:36.653Z,26.59
2022-07-31T05:10:37.364Z,26.18
2022-07-31T05:11:36.327Z,25.87
2022-07-31T05:12:36.304Z,25.51
2022-07-31T05:13:36.289Z,25.26
2022-07-31T05:14:36.267Z,25.18
2022-07-31T05:15:36.279Z,25.26
2022-07-31T05:16:36.238Z,26.55
2022-07-31T05:17:36.222Z,27.45
2022-07-31T05:18:36.203Z,28.22
2022-07-31T05:19:36.184Z,28.74
2022-07-31T05:20:36.194Z,28.60
2022-07-31T05:21:52.851Z,29.31
2022-07-31T05:22:37.126Z,29.95
2022-07-31T05:23:36.112Z,30.10
2022-07-31T05:24:36.092Z,28.76
2022-07-31T05:25:36.106Z,28.57
2022-07-31T05:26:36.054Z,29.66
2022-07-31T05:27:38.925Z,30.63
2022-07-31T05:28:36.022Z,30.51
2022-07-31T05:29:36.010Z,30.09
2022-07-31T05:30:36.013Z,29.86
2022-07-31T05:31:35.967Z,29.41
2022-07-31T05:32:35.951Z,29.01
2022-07-31T05:33:35.932Z,28.66
2022-07-31T05:34:35.913Z,29.01
2022-07-31T05:35:35.922Z,28.54
2022-07-31T05:36:35.894Z,27.96
2022-07-31T05:37:35.861Z,27.48
2022-07-31T05:38:35.837Z,27.25
2022-07-31T05:39:35.822Z,26.88
2022-07-31T05:40:35.830Z,26.80
2022-07-31T05:41:35.791Z,26.47
2022-07-31T05:42:35.769Z,26.00
2022-07-31T05:43:35.755Z,25.88
2022-07-31T05:44:35.728Z,25.85
2022-07-31T05:45:35.737Z,25.66
2022-07-31T05:46:35.692Z,25.51
2022-07-31T05:47:40.301Z,25.50
2022-07-31T05:48:36.653Z,25.75
2022-07-31T05:49:35.780Z,26.00
2022-07-31T05:50:35.642Z,26.47
2022-07-31T05:51:35.606Z,26.28
2022-07-31T05:52:35.581Z,26.13
2022-07-31T05:53:35.564Z,26.07
2022-07-31T05:54:35.548Z,26.06
2022-07-31T05:55:35.559Z,26.18
2022-07-31T05:56:35.503Z,26.38
2022-07-31T05:57:35.489Z,26.63
2022-07-31T05:58:35.475Z,26.63
2022-07-31T05:59:35.479Z,26.65
2022-07-31T06:00:35.466Z,26.40
2022-07-31T06:01:35.540Z,25.91
2022-07-31T06:02:35.414Z,25.87
2022-07-31T06:03:38.539Z,25.44
2022-07-31T06:04:36.367Z,25.29
2022-07-31T06:05:35.373Z,25.18
2022-07-31T06:06:35.561Z,25.21
2022-07-31T06:07:36.283Z,25.16
2022-07-31T06:08:35.289Z,25.16
2022-07-31T06:09:35.322Z,25.03
2022-07-31T06:10:35.277Z,24.95
2022-07-31T06:11:35.228Z,24.99
2022-07-31T06:12:35.215Z,24.93
2022-07-31T06:13:35.196Z,25.13
2022-07-31T06:14:35.181Z,25.17
2022-07-31T06:15:36.731Z,25.17
2022-07-31T06:16:36.142Z,25.11
2022-07-31T06:17:40.521Z,25.10
2022-07-31T06:18:35.106Z,25.25
2022-07-31T06:19:35.094Z,25.25
2022-07-31T06:20:37.195Z,25.43
2022-07-31T06:21:35.063Z,25.59
2022-07-31T06:22:35.041Z,25.53
2022-07-31T06:23:35.059Z,25.51
2022-07-31T06:24:35.003Z,25.73
2022-07-31T06:25:38.911Z,26.02
2022-07-31T06:26:34.969Z,26.26
2022-07-31T06:27:35.286Z,26.47
2022-07-31T06:28:48.736Z,26.71
2022-07-31T06:29:41.547Z,26.53
2022-07-31T06:30:36.922Z,26.37
2022-07-31T06:31:34.879Z,26.40
2022-07-31T06:32:34.866Z,26.41
2022-07-31T06:33:37.525Z,26.73
2022-07-31T06:34:34.826Z,27.00
2022-07-31T06:35:34.836Z,27.51
2022-07-31T06:36:34.787Z,27.86
2022-07-31T06:37:34.773Z,28.51
2022-07-31T06:38:34.752Z,28.48
2022-07-31T06:39:54.440Z,28.47
2022-07-31T06:40:35.740Z,28.64
2022-07-31T06:41:34.694Z,29.05
2022-07-31T06:42:34.673Z,29.53
2022-07-31T06:43:34.655Z,29.71
2022-07-31T06:44:34.645Z,29.79
2022-07-31T06:45:51.715Z,29.88
2022-07-31T06:46:36.603Z,30.15
2022-07-31T06:47:34.584Z,29.61
2022-07-31T06:48:34.572Z,29.56
2022-07-31T06:49:34.582Z,29.56
2022-07-31T06:50:34.564Z,29.57
2022-07-31T06:51:34.547Z,29.56
2022-07-31T06:52:34.523Z,29.68
2022-07-31T06:53:34.483Z,29.72
2022-07-31T06:54:34.468Z,29.68
2022-07-31T06:55:34.518Z,29.50
2022-07-31T06:56:34.433Z,29.53
2022-07-31T06:57:34.416Z,29.54
2022-07-31T06:58:34.420Z,29.22
2022-07-31T06:59:39.189Z,28.91
2022-07-31T07:00:35.398Z,28.38
2022-07-31T07:01:34.415Z,28.59
2022-07-31T07:02:34.334Z,28.56
2022-07-31T07:03:34.315Z,28.52
2022-07-31T07:04:57.839Z,28.41
2022-07-31T07:05:35.337Z,28.15
2022-07-31T07:06:34.273Z,27.82
2022-07-31T07:07:34.248Z,27.95
2022-07-31T07:08:34.230Z,28.04
2022-07-31T07:09:34.219Z,28.20
2022-07-31T07:10:34.198Z,28.70
2022-07-31T07:11:34.207Z,28.91
2022-07-31T07:12:34.170Z,29.38
2022-07-31T07:13:44.999Z,29.56
2022-07-31T07:14:35.131Z,29.78
2022-07-31T07:15:34.114Z,29.19
2022-07-31T07:16:34.126Z,29.14
2022-07-31T07:17:34.080Z,29.22
2022-07-31T07:18:34.066Z,29.17
2022-07-31T07:19:34.050Z,29.04
2022-07-31T07:20:34.027Z,28.85
2022-07-31T07:21:34.038Z,28.42
2022-07-31T07:22:33.993Z,28.08
2022-07-31T07:23:34.887Z,27.95
2022-07-31T07:24:33.959Z,27.51
2022-07-31T07:25:33.936Z,27.37
2022-07-31T07:26:33.947Z,27.47
2022-07-31T07:27:33.905Z,27.71
2022-07-31T07:28:33.887Z,28.41
2022-07-31T07:29:33.868Z,28.84
2022-07-31T07:30:33.852Z,29.32
2022-07-31T07:31:33.869Z,29.53
2022-07-31T07:32:33.817Z,29.59
2022-07-31T07:33:41.398Z,29.75
2022-07-31T07:34:34.782Z,30.12
2022-07-31T07:35:34.327Z,29.78
2022-07-31T07:36:34.784Z,30.16
2022-07-31T07:37:39.101Z,30.32
2022-07-31T07:38:34.723Z,30.43
2022-07-31T07:39:33.702Z,30.40
2022-07-31T07:40:33.685Z,30.48
2022-07-31T07:41:33.712Z,30.10
2022-07-31T07:42:33.651Z,29.81
2022-07-31T07:43:33.632Z,29.76
2022-07-31T07:44:33.614Z,29.51
2022-07-31T07:45:33.624Z,29.20
2022-07-31T07:46:33.581Z,28.89
2022-07-31T07:48:02.355Z,28.66
2022-07-31T07:48:34.551Z,28.22
2022-07-31T07:49:34.367Z,28.07
2022-07-31T07:50:33.531Z,27.86
2022-07-31T07:51:33.496Z,27.58
2022-07-31T07:52:33.475Z,27.25
2022-07-31T07:53:33.460Z,27.20
2022-07-31T07:54:33.444Z,26.59
2022-07-31T07:55:37.568Z,26.55
2022-07-31T07:56:33.406Z,26.45
2022-07-31T07:57:33.408Z,26.36
2022-07-31T07:58:33.371Z,26.28
2022-07-31T07:59:33.368Z,26.23
2022-07-31T08:00:33.363Z,26.09
2022-07-31T08:01:33.350Z,25.98
2022-07-31T08:02:33.294Z,25.81
2022-07-31T08:03:49.099Z,25.48
2022-07-31T08:04:34.263Z,25.26
2022-07-31T08:05:33.244Z,25.13
2022-07-31T08:06:33.253Z,25.08
2022-07-31T08:07:41.747Z,25.16
2022-07-31T08:08:34.192Z,25.25
2022-07-31T08:09:33.172Z,25.47
2022-07-31T08:10:33.231Z,25.51
2022-07-31T08:11:33.164Z,25.41
2022-07-31T08:12:33.126Z,25.60
2022-07-31T08:13:33.882Z,25.54
2022-07-31T08:14:33.088Z,25.60
2022-07-31T08:15:33.074Z,25.68
2022-07-31T08:16:33.076Z,25.83
2022-07-31T08:17:33.031Z,25.88
2022-07-31T08:18:33.012Z,25.78
2022-07-31T08:19:32.994Z,25.85
2022-07-31T08:20:32.977Z,25.53
2022-07-31T08:21:32.986Z,25.43
2022-07-31T08:22:32.939Z,25.33
2022-07-31T08:23:32.927Z,25.23
2022-07-31T08:24:32.906Z,25.33
2022-07-31T08:25:32.891Z,25.25
2022-07-31T08:26:32.917Z,25.25
2022-07-31T08:27:40.405Z,25.11
2022-07-31T08:28:33.823Z,24.88
2022-07-31T08:29:33.813Z,24.70
2022-07-31T08:30:32.808Z,24.60
2022-07-31T08:31:32.815Z,24.48
2022-07-31T08:32:32.765Z,24.55
2022-07-31T08:33:32.745Z,24.57
2022-07-31T08:34:32.728Z,24.47
2022-07-31T08:35:32.711Z,24.24
2022-07-31T08:36:32.718Z,24.16
2022-07-31T08:37:50.904Z,24.02
2022-07-31T08:38:33.656Z,24.20
2022-07-31T08:39:32.642Z,24.36
2022-07-31T08:40:32.737Z,24.36
2022-07-31T08:41:32.634Z,24.28
2022-07-31T08:42:32.589Z,24.24
2022-07-31T08:44:01.685Z,24.35
2022-07-31T08:44:34.554Z,24.48
2022-07-31T08:45:32.538Z,24.61
2022-07-31T08:46:32.549Z,24.60
2022-07-31T08:47:32.530Z,24.58
2022-07-31T08:48:32.485Z,24.69
2022-07-31T08:49:32.522Z,24.84
2022-07-31T08:50:32.452Z,24.95
2022-07-31T08:51:32.436Z,24.95
2022-07-31T08:52:33.444Z,24.88
2022-07-31T08:53:32.406Z,24.88
2022-07-31T08:54:32.385Z,25.13
2022-07-31T08:55:57.156Z,25.31
2022-07-31T08:56:33.374Z,25.62
2022-07-31T08:57:32.332Z,25.51
2022-07-31T08:58:34.984Z,25.35
2022-07-31T08:59:33.298Z,25.17
2022-07-31T09:00:32.282Z,25.01
2022-07-31T09:01:32.391Z,25.10
2022-07-31T09:02:32.246Z,25.44
2022-07-31T09:03:32.243Z,25.62
2022-07-31T09:04:32.208Z,25.91
2022-07-31T09:05:42.568Z,26.15
2022-07-31T09:06:33.203Z,26.19
2022-07-31T09:07:32.159Z,26.40
2022-07-31T09:08:32.141Z,26.37
2022-07-31T09:09:45.232Z,26.36
2022-07-31T09:10:33.109Z,26.43
2022-07-31T09:11:32.115Z,26.60
2022-07-31T09:12:32.083Z,26.97
2022-07-31T09:13:32.078Z,27.02
2022-07-31T09:14:32.037Z,27.07
2022-07-31T09:15:32.026Z,27.22
2022-07-31T09:16:32.049Z,27.20
2022-07-31T09:17:32.015Z,27.00
2022-07-31T09:18:31.970Z,26.96
2022-07-31T09:19:53.049Z,27.14
2022-07-31T09:20:32.932Z,27.27
2022-07-31T09:21:31.940Z,27.51
2022-07-31T09:22:31.896Z,27.26
2022-07-31T09:23:31.879Z,27.37
2022-07-31T09:24:31.874Z,27.18
2022-07-31T09:25:32.842Z,27.17
2022-07-31T09:26:31.853Z,27.03
2022-07-31T09:27:31.805Z,27.08
2022-07-31T09:28:31.790Z,27.22
2022-07-31T09:29:31.765Z,27.21
2022-07-31T09:30:31.751Z,27.14
2022-07-31T09:31:31.761Z,27.07
2022-07-31T09:32:31.724Z,27.05
2022-07-31T09:33:31.702Z,27.05
2022-07-31T09:34:31.680Z,27.03
2022-07-31T09:35:31.661Z,27.12
2022-07-31T09:36:31.689Z,26.83
2022-07-31T09:37:31.624Z,26.41
2022-07-31T09:38:31.607Z,26.36
2022-07-31T09:39:31.593Z,26.43
2022-07-31T09:40:31.574Z,26.36
2022-07-31T09:41:57.923Z,26.45
2022-07-31T09:42:32.541Z,26.48
2022-07-31T09:43:32.873Z,26.53
2022-07-31T09:44:31.503Z,26.66
2022-07-31T09:45:31.485Z,26.84
2022-07-31T09:46:31.496Z,26.93
2022-07-31T09:47:31.449Z,27.02
2022-07-31T09:48:31.518Z,27.11
2022-07-31T09:49:31.472Z,27.08
2022-07-31T09:50:31.399Z,26.88
2022-07-31T09:51:31.407Z,26.96
2022-07-31T09:52:31.391Z,27.21
2022-07-31T09:53:31.673Z,27.42
2022-07-31T09:54:31.346Z,27.51
2022-07-31T09:55:31.873Z,27.35
2022-07-31T09:56:31.652Z,26.89
2022-07-31T09:57:31.268Z,26.66
2022-07-31T09:58:31.557Z,26.62
2022-07-31T09:59:31.234Z,26.78
2022-07-31T10:00:31.372Z,27.17
2022-07-31T10:01:31.667Z,27.33
2022-07-31T10:02:31.320Z,27.47
2022-07-31T10:03:31.476Z,27.49
2022-07-31T10:04:31.143Z,27.47
2022-07-31T10:05:31.399Z,27.35
2022-07-31T10:06:32.304Z,27.49
2022-07-31T10:07:32.866Z,27.86
2022-07-31T10:08:31.103Z,28.15
2022-07-31T10:09:31.061Z,28.33
2022-07-31T10:10:31.118Z,27.90
2022-07-31T10:11:31.060Z,27.77
2022-07-31T10:12:31.078Z,27.82
2022-07-31T10:13:31.000Z,28.02
2022-07-31T10:14:31.019Z,27.87
2022-07-31T10:15:30.979Z,28.11
2022-07-31T10:16:30.925Z,28.42
2022-07-31T10:17:35.025Z,28.60
2022-07-31T10:18:35.780Z,28.82
2022-07-31T10:19:30.869Z,28.93
2022-07-31T10:20:30.879Z,29.19
2022-07-31T10:21:30.833Z,29.22
2022-07-31T10:22:30.816Z,28.91
2022-07-31T10:23:30.796Z,28.48
2022-07-31T10:24:30.783Z,28.39
2022-07-31T10:25:30.786Z,28.19
2022-07-31T10:26:58.684Z,28.49
2022-07-31T10:27:32.729Z,28.32
2022-07-31T10:28:31.711Z,28.11
2022-07-31T10:29:32.576Z,27.89
2022-07-31T10:30:30.702Z,27.95
2022-07-31T10:31:30.655Z,28.22
2022-07-31T10:32:30.643Z,28.38
2022-07-31T10:33:45.515Z,28.38
2022-07-31T10:34:32.599Z,28.49
2022-07-31T10:35:30.607Z,28.62
2022-07-31T10:36:30.908Z,28.33
2022-07-31T10:37:30.548Z,28.39
2022-07-31T10:38:30.539Z,28.51
2022-07-31T10:39:31.076Z,28.22
2022-07-31T10:40:30.520Z,27.82
2022-07-31T10:41:30.480Z,27.58
2022-07-31T10:42:30.454Z,27.65
2022-07-31T10:43:30.439Z,27.98
2022-07-31T10:44:30.485Z,27.90
2022-07-31T10:45:30.430Z,27.93
2022-07-31T10:46:30.382Z,27.95
2022-07-31T10:47:30.364Z,27.98
2022-07-31T10:48:30.341Z,27.95
2022-07-31T10:49:30.407Z,27.90
2022-07-31T10:50:30.338Z,27.98
2022-07-31T10:51:30.306Z,27.87
2022-07-31T10:52:30.278Z,27.52
2022-07-31T10:53:50.610Z,27.39
2022-07-31T10:54:31.240Z,27.47
2022-07-31T10:55:30.248Z,27.58
2022-07-31T10:56:30.206Z,27.33
2022-07-31T10:57:30.185Z,27.58
2022-07-31T10:58:30.165Z,27.59
2022-07-31T10:59:30.153Z,27.58
2022-07-31T11:00:30.325Z,27.40
2022-07-31T11:01:30.146Z,27.48
2022-07-31T11:02:30.085Z,27.68
2022-07-31T11:03:30.069Z,27.59
2022-07-31T11:04:30.054Z,27.65
2022-07-31T11:05:30.068Z,28.08
2022-07-31T11:06:30.017Z,28.60
2022-07-31T11:07:29.998Z,28.66
2022-07-31T11:08:29.979Z,28.79
2022-07-31T11:09:29.963Z,28.84
2022-07-31T11:10:29.969Z,28.88
2022-07-31T11:11:29.927Z,29.02
2022-07-31T11:12:29.908Z,29.27
2022-07-31T11:13:36.795Z,29.23
2022-07-31T11:14:30.870Z,28.85
2022-07-31T11:15:29.882Z,28.41
2022-07-31T11:16:29.835Z,28.56
2022-07-31T11:18:23.342Z,28.20
2022-07-31T11:18:34.378Z,28.19
2022-07-31T11:19:30.781Z,28.17
2022-07-31T11:20:29.791Z,28.37
2022-07-31T11:21:38.600Z,28.62
2022-07-31T11:22:33.170Z,28.32
2022-07-31T11:23:29.705Z,28.41
2022-07-31T11:24:29.688Z,28.30
2022-07-31T11:25:29.696Z,28.27
2022-07-31T11:26:32.924Z,27.96
2022-07-31T11:27:30.634Z,27.95
2022-07-31T11:28:29.624Z,27.87
2022-07-31T11:30:01.157Z,27.85
2022-07-31T11:30:30.607Z,27.75
2022-07-31T11:31:29.563Z,28.07
2022-07-31T11:32:29.542Z,28.10
2022-07-31T11:33:29.521Z,27.95
2022-07-31T11:34:30.507Z,27.89
2022-07-31T11:35:29.519Z,27.82
2022-07-31T11:36:29.469Z,27.70
2022-07-31T11:37:39.506Z,27.78
2022-07-31T11:38:30.434Z,28.05
2022-07-31T11:39:36.962Z,28.14
2022-07-31T11:40:30.427Z,28.32
2022-07-31T11:41:29.383Z,28.39
2022-07-31T11:42:34.524Z,28.51
2022-07-31T11:43:30.353Z,28.39
2022-07-31T11:44:29.336Z,28.41
2022-07-31T11:45:33.300Z,28.29
2022-07-31T11:46:29.300Z,28.17
2022-07-31T11:48:12.522Z,28.14
2022-07-31T11:48:33.995Z,28.19
2022-07-31T11:49:47.897Z,28.07
2022-07-31T11:50:30.255Z,27.92
2022-07-31T11:51:29.242Z,27.55
2022-07-31T11:52:31.111Z,27.54
2022-07-31T11:53:30.175Z,27.51
2022-07-31T11:54:29.153Z,27.59
2022-07-31T11:55:29.163Z,27.73
2022-07-31T11:56:29.118Z,27.59
2022-07-31T11:57:29.101Z,27.68
2022-07-31T11:58:30.083Z,27.47
2022-07-31T11:59:45.597Z,27.52
2022-07-31T12:00:30.404Z,27.44
2022-07-31T12:01:30.031Z,27.68
2022-07-31T12:02:29.038Z,27.58
2022-07-31T12:03:28.994Z,27.40
2022-07-31T12:04:28.975Z,27.49
2022-07-31T12:05:36.190Z,27.22
2022-07-31T12:06:34.598Z,27.15
2022-07-31T12:07:29.920Z,27.20
2022-07-31T12:08:28.901Z,27.10
2022-07-31T12:10:01.423Z,27.05
2022-07-31T12:10:29.896Z,27.07
2022-07-31T12:11:28.875Z,26.89
2022-07-31T12:12:28.832Z,26.81
2022-07-31T12:13:28.819Z,26.88
2022-07-31T12:14:28.797Z,26.89
2022-07-31T12:15:28.808Z,26.78
2022-07-31T12:16:28.757Z,26.88
2022-07-31T12:17:28.743Z,26.97
2022-07-31T12:18:28.728Z,26.92
2022-07-31T12:19:28.703Z,26.83
2022-07-31T12:20:35.576Z,26.93
2022-07-31T12:21:30.669Z,27.08
2022-07-31T12:22:28.651Z,27.22
2022-07-31T12:23:38.646Z,27.03
2022-07-31T12:24:29.617Z,26.92
2022-07-31T12:25:28.627Z,26.81
2022-07-31T12:26:28.581Z,26.83
2022-07-31T12:27:28.559Z,26.84
2022-07-31T12:28:28.542Z,26.80
2022-07-31T12:29:28.528Z,26.92
2022-07-31T12:30:30.184Z,26.89
2022-07-31T12:31:29.492Z,26.92
2022-07-31T12:32:28.467Z,26.85
2022-07-31T12:33:28.452Z,26.81
2022-07-31T12:34:28.428Z,26.78
2022-07-31T12:35:28.439Z,26.56
2022-07-31T12:36:29.395Z,26.65
2022-07-31T12:37:28.382Z,26.68
2022-07-31T12:38:45.863Z,26.70
2022-07-31T12:39:54.865Z,26.44
2022-07-31T12:40:29.350Z,26.44
2022-07-31T12:41:28.305Z,26.43
2022-07-31T12:42:30.331Z,26.45
2022-07-31T12:43:28.270Z,26.51
2022-07-31T12:44:28.252Z,26.48
2022-07-31T12:45:28.260Z,26.44
2022-07-31T12:46:28.215Z,26.55
2022-07-31T12:47:29.196Z,26.58
2022-07-31T12:48:28.179Z,26.53
2022-07-31T12:49:28.216Z,26.34
2022-07-31T12:50:28.167Z,26.16
2022-07-31T12:51:45.637Z,26.03
2022-07-31T12:52:29.103Z,26.06